sensor_id;sensor_type;location;lat;lon;timestamp;P1;durP1;ratioP1;P2;durP2;ratioP2
76021;SDS011;64718;52.124;6.226;2023-11-18T00:00:23;29.13;;;13.85;;
76021;SDS011;64718;52.124;6.226;2023-11-18T00:02:49;26.65;;;10.23;;
76021;SDS011;64718;52.124;6.226;2023-11-18T00:05:16;30.35;;;14.20;;
76021;SDS011;64718;52.124;6.226;2023-11-18T00:07:43;29.00;;;12.40;;
76021;SDS011;64718;52.124;6.226;2023-11-18T00:10:10;21.45;;;10.05;;
76021;SDS011;64718;52.124;6.226;2023-11-18T00:12:38;29.33;;;13.50;;
76021;SDS011;64718;52.124;6.226;2023-11-18T00:15:06;27.75;;;12.82;;
76021;SDS011;64718;52.124;6.226;2023-11-18T00:17:35;28.50;;;12.80;;
76021;SDS011;64718;52.124;6.226;2023-11-18T00:20:02;27.00;;;12.40;;
76021;SDS011;64718;52.124;6.226;2023-11-18T00:22:34;27.08;;;12.55;;
76021;SDS011;64718;52.124;6.226;2023-11-18T00:25:00;23.15;;;12.20;;
76021;SDS011;64718;52.124;6.226;2023-11-18T00:27:30;31.55;;;14.13;;
76021;SDS011;64718;52.124;6.226;2023-11-18T00:29:57;28.50;;;13.10;;
76021;SDS011;64718;52.124;6.226;2023-11-18T00:32:24;30.90;;;13.95;;
76021;SDS011;64718;52.124;6.226;2023-11-18T00:34:51;35.28;;;15.20;;
76021;SDS011;64718;52.124;6.226;2023-11-18T00:37:17;31.77;;;14.77;;
76021;SDS011;64718;52.124;6.226;2023-11-18T00:39:43;31.52;;;14.52;;
76021;SDS011;64718;52.124;6.226;2023-11-18T00:42:10;28.42;;;14.23;;
76021;SDS011;64718;52.124;6.226;2023-11-18T00:44:36;33.20;;;14.88;;
76021;SDS011;64718;52.124;6.226;2023-11-18T00:47:04;39.78;;;16.45;;
76021;SDS011;64718;52.124;6.226;2023-11-18T00:49:31;32.13;;;13.43;;
76021;SDS011;64718;52.124;6.226;2023-11-18T00:51:59;37.97;;;13.70;;
76021;SDS011;64718;52.124;6.226;2023-11-18T00:54:25;34.75;;;11.77;;
76021;SDS011;64718;52.124;6.226;2023-11-18T00:56:52;33.90;;;15.57;;
76021;SDS011;64718;52.124;6.226;2023-11-18T00:59:18;38.90;;;15.38;;
76021;SDS011;64718;52.124;6.226;2023-11-18T01:01:45;36.20;;;15.57;;
76021;SDS011;64718;52.124;6.226;2023-11-18T01:04:13;37.42;;;15.73;;
76021;SDS011;64718;52.124;6.226;2023-11-18T01:06:40;37.67;;;14.00;;
76021;SDS011;64718;52.124;6.226;2023-11-18T01:09:08;39.53;;;15.75;;
76021;SDS011;64718;52.124;6.226;2023-11-18T01:11:35;42.65;;;16.25;;
76021;SDS011;64718;52.124;6.226;2023-11-18T01:14:01;34.97;;;14.63;;
76021;SDS011;64718;52.124;6.226;2023-11-18T01:16:28;40.45;;;15.98;;
76021;SDS011;64718;52.124;6.226;2023-11-18T01:18:54;41.50;;;16.20;;
76021;SDS011;64718;52.124;6.226;2023-11-18T01:21:22;34.80;;;16.45;;
76021;SDS011;64718;52.124;6.226;2023-11-18T01:23:49;39.80;;;15.38;;
76021;SDS011;64718;52.124;6.226;2023-11-18T01:26:15;43.42;;;16.25;;
76021;SDS011;64718;52.124;6.226;2023-11-18T01:28:42;44.58;;;16.23;;
76021;SDS011;64718;52.124;6.226;2023-11-18T01:31:10;41.47;;;17.42;;
76021;SDS011;64718;52.124;6.226;2023-11-18T01:33:38;37.90;;;14.98;;
76021;SDS011;64718;52.124;6.226;2023-11-18T01:36:06;41.95;;;16.48;;
76021;SDS011;64718;52.124;6.226;2023-11-18T01:38:35;35.42;;;14.43;;
76021;SDS011;64718;52.124;6.226;2023-11-18T01:41:03;44.92;;;18.48;;
76021;SDS011;64718;52.124;6.226;2023-11-18T01:43:31;41.55;;;16.70;;
76021;SDS011;64718;52.124;6.226;2023-11-18T01:45:58;41.95;;;17.23;;
76021;SDS011;64718;52.124;6.226;2023-11-18T01:48:27;37.28;;;14.70;;
76021;SDS011;64718;52.124;6.226;2023-11-18T01:51:05;40.17;;;16.10;;
76021;SDS011;64718;52.124;6.226;2023-11-18T01:53:36;39.15;;;16.15;;
76021;SDS011;64718;52.124;6.226;2023-11-18T01:56:05;36.50;;;15.95;;
76021;SDS011;64718;52.124;6.226;2023-11-18T01:58:33;38.67;;;15.57;;
76021;SDS011;64718;52.124;6.226;2023-11-18T02:01:00;39.05;;;15.35;;
76021;SDS011;64718;52.124;6.226;2023-11-18T02:03:28;34.03;;;16.42;;
76021;SDS011;64718;52.124;6.226;2023-11-18T02:05:55;41.15;;;14.43;;
76021;SDS011;64718;52.124;6.226;2023-11-18T02:08:22;41.58;;;16.42;;
76021;SDS011;64718;52.124;6.226;2023-11-18T02:10:53;39.58;;;15.07;;
76021;SDS011;64718;52.124;6.226;2023-11-18T02:13:24;34.83;;;15.35;;
76021;SDS011;64718;52.124;6.226;2023-11-18T02:15:54;40.13;;;15.70;;
76021;SDS011;64718;52.124;6.226;2023-11-18T02:18:22;36.00;;;14.57;;
76021;SDS011;64718;52.124;6.226;2023-11-18T02:20:51;36.13;;;16.20;;
76021;SDS011;64718;52.124;6.226;2023-11-18T02:23:18;34.22;;;14.02;;
76021;SDS011;64718;52.124;6.226;2023-11-18T02:25:48;32.78;;;14.80;;
76021;SDS011;64718;52.124;6.226;2023-11-18T02:28:14;37.13;;;14.35;;
76021;SDS011;64718;52.124;6.226;2023-11-18T02:30:41;34.72;;;15.80;;
76021;SDS011;64718;52.124;6.226;2023-11-18T02:33:11;45.17;;;17.30;;
76021;SDS011;64718;52.124;6.226;2023-11-18T02:35:45;39.20;;;17.10;;
76021;SDS011;64718;52.124;6.226;2023-11-18T02:38:15;42.20;;;16.75;;
76021;SDS011;64718;52.124;6.226;2023-11-18T02:40:44;41.90;;;16.13;;
76021;SDS011;64718;52.124;6.226;2023-11-18T02:43:14;40.65;;;16.58;;
76021;SDS011;64718;52.124;6.226;2023-11-18T02:48:09;37.33;;;14.27;;
76021;SDS011;64718;52.124;6.226;2023-11-18T02:50:35;38.67;;;17.48;;
76021;SDS011;64718;52.124;6.226;2023-11-18T02:53:03;36.03;;;16.88;;
76021;SDS011;64718;52.124;6.226;2023-11-18T02:55:30;40.40;;;17.33;;
76021;SDS011;64718;52.124;6.226;2023-11-18T02:57:56;42.92;;;16.35;;
76021;SDS011;64718;52.124;6.226;2023-11-18T03:00:24;41.88;;;16.73;;
76021;SDS011;64718;52.124;6.226;2023-11-18T03:02:51;41.40;;;18.40;;
76021;SDS011;64718;52.124;6.226;2023-11-18T03:05:17;46.85;;;18.58;;
76021;SDS011;64718;52.124;6.226;2023-11-18T03:07:45;39.17;;;18.35;;
76021;SDS011;64718;52.124;6.226;2023-11-18T03:10:14;46.35;;;18.50;;
76021;SDS011;64718;52.124;6.226;2023-11-18T03:12:46;45.10;;;18.95;;
76021;SDS011;64718;52.124;6.226;2023-11-18T03:15:12;47.67;;;18.08;;
76021;SDS011;64718;52.124;6.226;2023-11-18T03:17:43;37.97;;;16.90;;
76021;SDS011;64718;52.124;6.226;2023-11-18T03:20:10;38.42;;;16.27;;
76021;SDS011;64718;52.124;6.226;2023-11-18T03:22:39;44.80;;;17.52;;
76021;SDS011;64718;52.124;6.226;2023-11-18T03:25:06;47.08;;;18.27;;
76021;SDS011;64718;52.124;6.226;2023-11-18T03:27:33;40.33;;;17.38;;
76021;SDS011;64718;52.124;6.226;2023-11-18T03:30:00;41.95;;;18.75;;
76021;SDS011;64718;52.124;6.226;2023-11-18T03:32:26;43.20;;;18.60;;
76021;SDS011;64718;52.124;6.226;2023-11-18T03:34:54;39.33;;;18.48;;
76021;SDS011;64718;52.124;6.226;2023-11-18T03:37:24;44.85;;;17.48;;
76021;SDS011;64718;52.124;6.226;2023-11-18T03:39:51;40.45;;;17.33;;
76021;SDS011;64718;52.124;6.226;2023-11-18T03:42:18;46.65;;;18.55;;
76021;SDS011;64718;52.124;6.226;2023-11-18T03:44:44;43.50;;;18.52;;
76021;SDS011;64718;52.124;6.226;2023-11-18T03:47:12;41.22;;;19.08;;
76021;SDS011;64718;52.124;6.226;2023-11-18T03:49:39;40.70;;;17.63;;
76021;SDS011;64718;52.124;6.226;2023-11-18T03:52:07;37.95;;;17.77;;
76021;SDS011;64718;52.124;6.226;2023-11-18T03:54:33;52.30;;;18.67;;
76021;SDS011;64718;52.124;6.226;2023-11-18T03:57:00;48.63;;;17.52;;
76021;SDS011;64718;52.124;6.226;2023-11-18T03:59:26;42.03;;;17.63;;
76021;SDS011;64718;52.124;6.226;2023-11-18T04:01:53;46.28;;;17.60;;
76021;SDS011;64718;52.124;6.226;2023-11-18T04:04:19;50.70;;;19.10;;
76021;SDS011;64718;52.124;6.226;2023-11-18T04:06:46;41.20;;;18.02;;
76021;SDS011;64718;52.124;6.226;2023-11-18T04:09:14;47.28;;;17.98;;
76021;SDS011;64718;52.124;6.226;2023-11-18T04:11:41;46.40;;;18.77;;
76021;SDS011;64718;52.124;6.226;2023-11-18T04:14:09;46.50;;;18.25;;
76021;SDS011;64718;52.124;6.226;2023-11-18T04:16:36;45.05;;;19.75;;
76021;SDS011;64718;52.124;6.226;2023-11-18T04:19:03;50.00;;;19.15;;
76021;SDS011;64718;52.124;6.226;2023-11-18T04:21:30;44.35;;;16.63;;
76021;SDS011;64718;52.124;6.226;2023-11-18T04:23:57;47.13;;;18.52;;
76021;SDS011;64718;52.124;6.226;2023-11-18T04:26:24;37.28;;;16.30;;
76021;SDS011;64718;52.124;6.226;2023-11-18T04:28:51;37.25;;;16.17;;
76021;SDS011;64718;52.124;6.226;2023-11-18T04:31:17;43.45;;;17.55;;
76021;SDS011;64718;52.124;6.226;2023-11-18T04:33:44;42.35;;;18.10;;
76021;SDS011;64718;52.124;6.226;2023-11-18T04:36:10;43.35;;;19.83;;
76021;SDS011;64718;52.124;6.226;2023-11-18T04:38:38;45.72;;;18.77;;
76021;SDS011;64718;52.124;6.226;2023-11-18T04:41:05;40.22;;;17.08;;
76021;SDS011;64718;52.124;6.226;2023-11-18T04:43:33;39.45;;;16.27;;
76021;SDS011;64718;52.124;6.226;2023-11-18T04:45:59;41.72;;;18.50;;
76021;SDS011;64718;52.124;6.226;2023-11-18T04:48:26;44.85;;;19.40;;
76021;SDS011;64718;52.124;6.226;2023-11-18T04:50:52;48.53;;;19.75;;
76021;SDS011;64718;52.124;6.226;2023-11-18T04:53:19;46.67;;;18.90;;
76021;SDS011;64718;52.124;6.226;2023-11-18T04:55:45;43.35;;;17.52;;
76021;SDS011;64718;52.124;6.226;2023-11-18T04:58:12;41.90;;;17.95;;
76021;SDS011;64718;52.124;6.226;2023-11-18T05:00:40;52.58;;;18.63;;
76021;SDS011;64718;52.124;6.226;2023-11-18T05:03:07;45.58;;;17.60;;
76021;SDS011;64718;52.124;6.226;2023-11-18T05:05:35;48.78;;;19.67;;
76021;SDS011;64718;52.124;6.226;2023-11-18T05:08:03;47.40;;;19.90;;
76021;SDS011;64718;52.124;6.226;2023-11-18T05:10:31;50.33;;;18.83;;
76021;SDS011;64718;52.124;6.226;2023-11-18T05:12:58;55.50;;;20.23;;
76021;SDS011;64718;52.124;6.226;2023-11-18T05:15:24;46.90;;;17.67;;
76021;SDS011;64718;52.124;6.226;2023-11-18T05:17:52;50.35;;;19.50;;
76021;SDS011;64718;52.124;6.226;2023-11-18T05:20:19;59.30;;;21.38;;
76021;SDS011;64718;52.124;6.226;2023-11-18T05:22:46;49.92;;;18.95;;
76021;SDS011;64718;52.124;6.226;2023-11-18T05:25:13;46.47;;;17.80;;
76021;SDS011;64718;52.124;6.226;2023-11-18T05:27:40;54.63;;;19.73;;
76021;SDS011;64718;52.124;6.226;2023-11-18T05:30:07;49.30;;;21.60;;
76021;SDS011;64718;52.124;6.226;2023-11-18T05:32:34;47.72;;;17.77;;
76021;SDS011;64718;52.124;6.226;2023-11-18T05:35:03;42.45;;;19.55;;
76021;SDS011;64718;52.124;6.226;2023-11-18T05:37:30;43.75;;;18.02;;
76021;SDS011;64718;52.124;6.226;2023-11-18T05:40:00;44.60;;;18.55;;
76021;SDS011;64718;52.124;6.226;2023-11-18T05:42:31;34.97;;;17.55;;
76021;SDS011;64718;52.124;6.226;2023-11-18T05:44:58;44.92;;;19.70;;
76021;SDS011;64718;52.124;6.226;2023-11-18T05:47:24;47.08;;;18.48;;
76021;SDS011;64718;52.124;6.226;2023-11-18T05:49:51;45.55;;;17.83;;
76021;SDS011;64718;52.124;6.226;2023-11-18T05:52:19;45.67;;;16.77;;
76021;SDS011;64718;52.124;6.226;2023-11-18T05:54:46;43.10;;;17.95;;
76021;SDS011;64718;52.124;6.226;2023-11-18T05:57:13;41.42;;;18.25;;
76021;SDS011;64718;52.124;6.226;2023-11-18T05:59:41;43.25;;;17.98;;
76021;SDS011;64718;52.124;6.226;2023-11-18T06:02:08;44.63;;;18.33;;
76021;SDS011;64718;52.124;6.226;2023-11-18T06:04:38;46.75;;;17.45;;
76021;SDS011;64718;52.124;6.226;2023-11-18T06:07:04;45.95;;;17.98;;
76021;SDS011;64718;52.124;6.226;2023-11-18T06:09:32;40.70;;;18.58;;
76021;SDS011;64718;52.124;6.226;2023-11-18T06:11:59;38.95;;;17.05;;
76021;SDS011;64718;52.124;6.226;2023-11-18T06:14:26;42.10;;;15.98;;
76021;SDS011;64718;52.124;6.226;2023-11-18T06:16:52;39.10;;;18.63;;
76021;SDS011;64718;52.124;6.226;2023-11-18T06:19:19;40.45;;;18.70;;
76021;SDS011;64718;52.124;6.226;2023-11-18T06:21:46;41.55;;;18.45;;
76021;SDS011;64718;52.124;6.226;2023-11-18T06:24:13;49.50;;;19.13;;
76021;SDS011;64718;52.124;6.226;2023-11-18T06:26:41;40.58;;;17.33;;
76021;SDS011;64718;52.124;6.226;2023-11-18T06:29:07;43.53;;;19.50;;
76021;SDS011;64718;52.124;6.226;2023-11-18T06:31:34;42.95;;;19.25;;
76021;SDS011;64718;52.124;6.226;2023-11-18T06:33:59;42.80;;;16.67;;
76021;SDS011;64718;52.124;6.226;2023-11-18T06:36:27;44.35;;;16.95;;
76021;SDS011;64718;52.124;6.226;2023-11-18T06:38:56;44.20;;;18.25;;
76021;SDS011;64718;52.124;6.226;2023-11-18T06:41:24;41.28;;;17.63;;
76021;SDS011;64718;52.124;6.226;2023-11-18T06:43:52;38.13;;;17.95;;
76021;SDS011;64718;52.124;6.226;2023-11-18T06:46:26;46.05;;;17.73;;
76021;SDS011;64718;52.124;6.226;2023-11-18T06:48:56;34.97;;;14.82;;
76021;SDS011;64718;52.124;6.226;2023-11-18T06:51:25;38.78;;;16.13;;
76021;SDS011;64718;52.124;6.226;2023-11-18T06:53:53;41.75;;;17.42;;
76021;SDS011;64718;52.124;6.226;2023-11-18T06:56:21;34.10;;;14.02;;
76021;SDS011;64718;52.124;6.226;2023-11-18T06:58:47;39.60;;;16.73;;
76021;SDS011;64718;52.124;6.226;2023-11-18T07:01:15;42.63;;;17.15;;
76021;SDS011;64718;52.124;6.226;2023-11-18T07:03:43;37.00;;;17.25;;
76021;SDS011;64718;52.124;6.226;2023-11-18T07:06:10;35.10;;;14.80;;
76021;SDS011;64718;52.124;6.226;2023-11-18T07:08:39;34.63;;;16.17;;
76021;SDS011;64718;52.124;6.226;2023-11-18T07:11:06;35.00;;;16.17;;
76021;SDS011;64718;52.124;6.226;2023-11-18T07:13:32;36.90;;;16.15;;
76021;SDS011;64718;52.124;6.226;2023-11-18T07:15:59;39.40;;;15.95;;
76021;SDS011;64718;52.124;6.226;2023-11-18T07:18:29;36.35;;;14.98;;
76021;SDS011;64718;52.124;6.226;2023-11-18T07:20:56;37.85;;;14.38;;
76021;SDS011;64718;52.124;6.226;2023-11-18T07:23:24;34.47;;;15.52;;
76021;SDS011;64718;52.124;6.226;2023-11-18T07:25:51;31.73;;;14.68;;
76021;SDS011;64718;52.124;6.226;2023-11-18T07:28:18;42.30;;;15.85;;
76021;SDS011;64718;52.124;6.226;2023-11-18T07:30:45;34.83;;;15.48;;
76021;SDS011;64718;52.124;6.226;2023-11-18T07:33:12;23.05;;;11.52;;
76021;SDS011;64718;52.124;6.226;2023-11-18T07:35:40;33.85;;;15.45;;
76021;SDS011;64718;52.124;6.226;2023-11-18T07:38:07;35.20;;;14.93;;
76021;SDS011;64718;52.124;6.226;2023-11-18T07:40:34;46.67;;;17.73;;
76021;SDS011;64718;52.124;6.226;2023-11-18T07:43:02;34.75;;;15.75;;
76021;SDS011;64718;52.124;6.226;2023-11-18T07:45:34;33.50;;;13.80;;
76021;SDS011;64718;52.124;6.226;2023-11-18T07:48:02;40.50;;;15.70;;
76021;SDS011;64718;52.124;6.226;2023-11-18T07:50:31;39.60;;;15.05;;
76021;SDS011;64718;52.124;6.226;2023-11-18T07:52:59;43.75;;;16.15;;
76021;SDS011;64718;52.124;6.226;2023-11-18T07:55:26;44.05;;;16.17;;
76021;SDS011;64718;52.124;6.226;2023-11-18T07:57:52;37.03;;;15.93;;
76021;SDS011;64718;52.124;6.226;2023-11-18T08:00:19;37.03;;;15.82;;
76021;SDS011;64718;52.124;6.226;2023-11-18T08:02:46;40.08;;;16.17;;
76021;SDS011;64718;52.124;6.226;2023-11-18T08:05:12;36.38;;;15.60;;
76021;SDS011;64718;52.124;6.226;2023-11-18T08:07:39;47.25;;;17.42;;
76021;SDS011;64718;52.124;6.226;2023-11-18T08:10:08;44.95;;;16.02;;
76021;SDS011;64718;52.124;6.226;2023-11-18T08:12:38;41.08;;;16.73;;
76021;SDS011;64718;52.124;6.226;2023-11-18T08:15:05;39.50;;;16.38;;
76021;SDS011;64718;52.124;6.226;2023-11-18T08:17:34;37.78;;;15.40;;
76021;SDS011;64718;52.124;6.226;2023-11-18T08:20:00;48.78;;;16.60;;
76021;SDS011;64718;52.124;6.226;2023-11-18T08:22:32;43.75;;;17.73;;
76021;SDS011;64718;52.124;6.226;2023-11-18T08:24:59;44.53;;;17.10;;
76021;SDS011;64718;52.124;6.226;2023-11-18T08:27:27;39.83;;;14.18;;
76021;SDS011;64718;52.124;6.226;2023-11-18T08:29:54;48.53;;;18.02;;
76021;SDS011;64718;52.124;6.226;2023-11-18T08:32:20;44.40;;;16.13;;
76021;SDS011;64718;52.124;6.226;2023-11-18T08:34:50;41.33;;;16.02;;
76021;SDS011;64718;52.124;6.226;2023-11-18T08:37:16;40.35;;;16.63;;
76021;SDS011;64718;52.124;6.226;2023-11-18T08:39:43;42.03;;;14.35;;
76021;SDS011;64718;52.124;6.226;2023-11-18T08:42:09;40.88;;;16.17;;
76021;SDS011;64718;52.124;6.226;2023-11-18T08:44:38;43.60;;;16.20;;
76021;SDS011;64718;52.124;6.226;2023-11-18T08:47:05;36.78;;;13.50;;
76021;SDS011;64718;52.124;6.226;2023-11-18T08:49:33;38.83;;;16.65;;
76021;SDS011;64718;52.124;6.226;2023-11-18T08:52:00;40.70;;;15.55;;
76021;SDS011;64718;52.124;6.226;2023-11-18T08:54:26;42.55;;;14.77;;
76021;SDS011;64718;52.124;6.226;2023-11-18T08:57:02;41.25;;;13.98;;
76021;SDS011;64718;52.124;6.226;2023-11-18T08:59:41;40.70;;;15.85;;
76021;SDS011;64718;52.124;6.226;2023-11-18T09:02:09;41.13;;;15.27;;
76021;SDS011;64718;52.124;6.226;2023-11-18T09:04:40;37.47;;;14.27;;
76021;SDS011;64718;52.124;6.226;2023-11-18T09:07:08;39.50;;;14.70;;
76021;SDS011;64718;52.124;6.226;2023-11-18T09:09:35;39.15;;;13.80;;
76021;SDS011;64718;52.124;6.226;2023-11-18T09:12:02;37.38;;;13.75;;
76021;SDS011;64718;52.124;6.226;2023-11-18T09:14:29;37.33;;;14.05;;
76021;SDS011;64718;52.124;6.226;2023-11-18T09:16:57;30.83;;;13.25;;
76021;SDS011;64718;52.124;6.226;2023-11-18T09:19:24;34.53;;;12.95;;
76021;SDS011;64718;52.124;6.226;2023-11-18T09:21:50;34.03;;;13.55;;
76021;SDS011;64718;52.124;6.226;2023-11-18T09:24:19;31.17;;;13.70;;
76021;SDS011;64718;52.124;6.226;2023-11-18T09:26:46;31.20;;;11.85;;
76021;SDS011;64718;52.124;6.226;2023-11-18T09:29:15;35.63;;;13.50;;
76021;SDS011;64718;52.124;6.226;2023-11-18T09:31:43;41.90;;;13.45;;
76021;SDS011;64718;52.124;6.226;2023-11-18T09:34:14;30.45;;;11.48;;
76021;SDS011;64718;52.124;6.226;2023-11-18T09:36:42;24.65;;;11.70;;
76021;SDS011;64718;52.124;6.226;2023-11-18T09:39:09;32.03;;;13.75;;
76021;SDS011;64718;52.124;6.226;2023-11-18T09:41:41;28.42;;;11.15;;
76021;SDS011;64718;52.124;6.226;2023-11-18T09:44:08;27.75;;;12.65;;
76021;SDS011;64718;52.124;6.226;2023-11-18T09:46:37;27.30;;;12.40;;
76021;SDS011;64718;52.124;6.226;2023-11-18T09:49:11;29.08;;;10.85;;
76021;SDS011;64718;52.124;6.226;2023-11-18T09:51:44;30.02;;;12.02;;
76021;SDS011;64718;52.124;6.226;2023-11-18T09:54:16;27.77;;;12.10;;
76021;SDS011;64718;52.124;6.226;2023-11-18T09:56:49;23.73;;;9.77;;
76021;SDS011;64718;52.124;6.226;2023-11-18T09:59:23;28.48;;;10.40;;
76021;SDS011;64718;52.124;6.226;2023-11-18T10:01:59;23.42;;;10.43;;
76021;SDS011;64718;52.124;6.226;2023-11-18T10:04:28;28.45;;;10.98;;
76021;SDS011;64718;52.124;6.226;2023-11-18T10:06:58;28.55;;;13.10;;
76021;SDS011;64718;52.124;6.226;2023-11-18T10:09:27;25.05;;;10.45;;
76021;SDS011;64718;52.124;6.226;2023-11-18T10:11:54;23.52;;;8.93;;
76021;SDS011;64718;52.124;6.226;2023-11-18T10:14:25;20.02;;;10.55;;
76021;SDS011;64718;52.124;6.226;2023-11-18T10:16:52;28.25;;;11.52;;
76021;SDS011;64718;52.124;6.226;2023-11-18T10:19:19;24.92;;;10.88;;
76021;SDS011;64718;52.124;6.226;2023-11-18T10:21:46;27.17;;;10.93;;
76021;SDS011;64718;52.124;6.226;2023-11-18T10:24:15;21.15;;;10.43;;
76021;SDS011;64718;52.124;6.226;2023-11-18T10:26:44;23.63;;;10.52;;
76021;SDS011;64718;52.124;6.226;2023-11-18T10:29:13;20.65;;;9.65;;
76021;SDS011;64718;52.124;6.226;2023-11-18T10:31:43;22.35;;;9.52;;
76021;SDS011;64718;52.124;6.226;2023-11-18T10:34:11;20.35;;;10.85;;
76021;SDS011;64718;52.124;6.226;2023-11-18T10:36:40;24.05;;;8.32;;
76021;SDS011;64718;52.124;6.226;2023-11-18T10:39:10;21.90;;;9.27;;
76021;SDS011;64718;52.124;6.226;2023-11-18T10:41:40;21.15;;;9.00;;
76021;SDS011;64718;52.124;6.226;2023-11-18T10:44:08;18.40;;;10.00;;
76021;SDS011;64718;52.124;6.226;2023-11-18T10:46:39;20.52;;;9.00;;
76021;SDS011;64718;52.124;6.226;2023-11-18T10:49:06;18.20;;;8.55;;
76021;SDS011;64718;52.124;6.226;2023-11-18T10:51:35;20.67;;;8.25;;
76021;SDS011;64718;52.124;6.226;2023-11-18T10:54:04;21.85;;;8.25;;
76021;SDS011;64718;52.124;6.226;2023-11-18T10:56:40;22.20;;;8.80;;
76021;SDS011;64718;52.124;6.226;2023-11-18T10:59:12;19.27;;;9.48;;
76021;SDS011;64718;52.124;6.226;2023-11-18T11:01:41;21.58;;;8.88;;
76021;SDS011;64718;52.124;6.226;2023-11-18T11:04:10;21.08;;;9.07;;
76021;SDS011;64718;52.124;6.226;2023-11-18T11:06:40;19.23;;;8.38;;
76021;SDS011;64718;52.124;6.226;2023-11-18T11:09:08;17.20;;;8.48;;
76021;SDS011;64718;52.124;6.226;2023-11-18T11:11:45;17.83;;;8.27;;
76021;SDS011;64718;52.124;6.226;2023-11-18T11:14:14;18.15;;;9.07;;
76021;SDS011;64718;52.124;6.226;2023-11-18T11:16:42;14.45;;;9.30;;
76021;SDS011;64718;52.124;6.226;2023-11-18T11:19:16;15.85;;;7.90;;
76021;SDS011;64718;52.124;6.226;2023-11-18T11:21:52;22.20;;;9.85;;
76021;SDS011;64718;52.124;6.226;2023-11-18T11:24:35;14.15;;;6.57;;
76021;SDS011;64718;52.124;6.226;2023-11-18T11:27:14;14.60;;;6.78;;
76021;SDS011;64718;52.124;6.226;2023-11-18T11:29:54;17.80;;;8.15;;
76021;SDS011;64718;52.124;6.226;2023-11-18T11:32:26;17.60;;;7.35;;
76021;SDS011;64718;52.124;6.226;2023-11-18T11:34:56;17.27;;;9.30;;
76021;SDS011;64718;52.124;6.226;2023-11-18T11:37:33;19.23;;;8.25;;
76021;SDS011;64718;52.124;6.226;2023-11-18T11:40:00;17.33;;;9.20;;
76021;SDS011;64718;52.124;6.226;2023-11-18T11:42:35;18.33;;;8.35;;
76021;SDS011;64718;52.124;6.226;2023-11-18T11:45:02;19.67;;;8.48;;
76021;SDS011;64718;52.124;6.226;2023-11-18T11:47:33;18.27;;;7.03;;
76021;SDS011;64718;52.124;6.226;2023-11-18T11:50:06;16.27;;;8.10;;
76021;SDS011;64718;52.124;6.226;2023-11-18T11:52:40;17.00;;;8.43;;
76021;SDS011;64718;52.124;6.226;2023-11-18T11:55:18;17.55;;;6.97;;
76021;SDS011;64718;52.124;6.226;2023-11-18T11:57:54;13.02;;;7.38;;
76021;SDS011;64718;52.124;6.226;2023-11-18T12:00:23;19.45;;;7.65;;
76021;SDS011;64718;52.124;6.226;2023-11-18T12:02:51;15.82;;;8.23;;
76021;SDS011;64718;52.124;6.226;2023-11-18T12:05:19;15.50;;;7.38;;
76021;SDS011;64718;52.124;6.226;2023-11-18T12:07:51;19.98;;;8.68;;
76021;SDS011;64718;52.124;6.226;2023-11-18T12:10:20;13.65;;;6.95;;
76021;SDS011;64718;52.124;6.226;2023-11-18T12:12:47;20.60;;;7.95;;
76021;SDS011;64718;52.124;6.226;2023-11-18T12:15:15;19.50;;;7.65;;
76021;SDS011;64718;52.124;6.226;2023-11-18T12:18:19;15.43;;;8.35;;
76021;SDS011;64718;52.124;6.226;2023-11-18T12:20:46;14.23;;;7.30;;
76021;SDS011;64718;52.124;6.226;2023-11-18T12:23:19;14.88;;;7.22;;
76021;SDS011;64718;52.124;6.226;2023-11-18T12:25:48;15.20;;;7.00;;
76021;SDS011;64718;52.124;6.226;2023-11-18T12:28:19;13.23;;;7.05;;
76021;SDS011;64718;52.124;6.226;2023-11-18T12:30:53;14.05;;;6.35;;
76021;SDS011;64718;52.124;6.226;2023-11-18T12:33:52;10.32;;;6.68;;
76021;SDS011;64718;52.124;6.226;2023-11-18T12:48:40;13.95;;;7.28;;
76021;SDS011;64718;52.124;6.226;2023-11-18T12:51:11;14.90;;;7.15;;
76021;SDS011;64718;52.124;6.226;2023-11-18T12:53:44;11.05;;;5.60;;
76021;SDS011;64718;52.124;6.226;2023-11-18T12:56:14;11.18;;;5.93;;
76021;SDS011;64718;52.124;6.226;2023-11-18T12:58:42;15.63;;;6.50;;
76021;SDS011;64718;52.124;6.226;2023-11-18T13:01:08;15.90;;;8.48;;
76021;SDS011;64718;52.124;6.226;2023-11-18T13:03:40;21.05;;;9.07;;
76021;SDS011;64718;52.124;6.226;2023-11-18T13:06:08;10.90;;;6.03;;
76021;SDS011;64718;52.124;6.226;2023-11-18T13:08:36;14.38;;;6.90;;
76021;SDS011;64718;52.124;6.226;2023-11-18T13:11:02;15.77;;;7.57;;
76021;SDS011;64718;52.124;6.226;2023-11-18T13:13:30;10.57;;;6.05;;
76021;SDS011;64718;52.124;6.226;2023-11-18T13:15:59;16.08;;;7.38;;
76021;SDS011;64718;52.124;6.226;2023-11-18T13:18:27;9.18;;;5.25;;
76021;SDS011;64718;52.124;6.226;2023-11-18T13:20:55;12.63;;;6.18;;
76021;SDS011;64718;52.124;6.226;2023-11-18T13:23:24;13.05;;;5.97;;
76021;SDS011;64718;52.124;6.226;2023-11-18T13:25:53;15.82;;;6.45;;
76021;SDS011;64718;52.124;6.226;2023-11-18T13:28:22;12.45;;;6.25;;
76021;SDS011;64718;52.124;6.226;2023-11-18T13:30:49;13.23;;;6.72;;
76021;SDS011;64718;52.124;6.226;2023-11-18T13:33:16;15.90;;;5.88;;
76021;SDS011;64718;52.124;6.226;2023-11-18T13:35:43;14.65;;;5.40;;
76021;SDS011;64718;52.124;6.226;2023-11-18T13:38:13;9.63;;;4.93;;
76021;SDS011;64718;52.124;6.226;2023-11-18T13:40:43;8.90;;;5.97;;
76021;SDS011;64718;52.124;6.226;2023-11-18T13:43:11;11.32;;;6.03;;
76021;SDS011;64718;52.124;6.226;2023-11-18T13:45:38;7.72;;;4.88;;
76021;SDS011;64718;52.124;6.226;2023-11-18T13:48:07;8.73;;;5.78;;
76021;SDS011;64718;52.124;6.226;2023-11-18T13:50:34;11.25;;;4.32;;
76021;SDS011;64718;52.124;6.226;2023-11-18T13:53:02;7.82;;;4.53;;
76021;SDS011;64718;52.124;6.226;2023-11-18T13:55:32;7.72;;;4.30;;
76021;SDS011;64718;52.124;6.226;2023-11-18T13:57:58;11.00;;;4.95;;
76021;SDS011;64718;52.124;6.226;2023-11-18T14:00:25;11.95;;;5.82;;
76021;SDS011;64718;52.124;6.226;2023-11-18T14:02:53;9.88;;;4.97;;
76021;SDS011;64718;52.124;6.226;2023-11-18T14:05:21;8.70;;;4.82;;
76021;SDS011;64718;52.124;6.226;2023-11-18T14:07:49;15.70;;;5.68;;
76021;SDS011;64718;52.124;6.226;2023-11-18T14:10:16;12.00;;;6.70;;
76021;SDS011;64718;52.124;6.226;2023-11-18T14:12:59;15.25;;;7.75;;
76021;SDS011;64718;52.124;6.226;2023-11-18T14:15:27;12.18;;;5.88;;
76021;SDS011;64718;52.124;6.226;2023-11-18T14:17:54;15.05;;;6.85;;
76021;SDS011;64718;52.124;6.226;2023-11-18T14:20:22;14.60;;;7.30;;
76021;SDS011;64718;52.124;6.226;2023-11-18T14:22:49;10.32;;;5.93;;
76021;SDS011;64718;52.124;6.226;2023-11-18T14:25:17;11.57;;;7.18;;
76021;SDS011;64718;52.124;6.226;2023-11-18T14:27:43;12.20;;;6.68;;
76021;SDS011;64718;52.124;6.226;2023-11-18T14:30:12;13.00;;;6.25;;
76021;SDS011;64718;52.124;6.226;2023-11-18T14:32:39;12.07;;;7.40;;
76021;SDS011;64718;52.124;6.226;2023-11-18T14:35:06;8.45;;;5.68;;
76021;SDS011;64718;52.124;6.226;2023-11-18T14:37:35;12.15;;;6.20;;
76021;SDS011;64718;52.124;6.226;2023-11-18T14:40:07;11.43;;;5.97;;
76021;SDS011;64718;52.124;6.226;2023-11-18T14:42:38;13.00;;;6.95;;
76021;SDS011;64718;52.124;6.226;2023-11-18T14:45:05;11.85;;;6.80;;
76021;SDS011;64718;52.124;6.226;2023-11-18T14:47:34;10.27;;;5.65;;